sensor_id;sensor_type;location;lat;lon;timestamp;temperature;humidity
66088;DHT22;52872;52.994;6.940;2023-02-28T00:01:33;5.90;99.90
66088;DHT22;52872;52.994;6.940;2023-02-28T00:04:00;5.90;99.90
66088;DHT22;52872;52.994;6.940;2023-02-28T00:06:27;5.90;99.90
66088;DHT22;52872;52.994;6.940;2023-02-28T00:08:54;5.90;99.90
66088;DHT22;52872;52.994;6.940;2023-02-28T00:11:21;5.90;99.90
66088;DHT22;52872;52.994;6.940;2023-02-28T00:13:49;5.90;99.90
66088;DHT22;52872;52.994;6.940;2023-02-28T00:16:21;6.00;99.90
66088;DHT22;52872;52.994;6.940;2023-02-28T00:18:49;6.00;99.90
66088;DHT22;52872;52.994;6.940;2023-02-28T00:21:17;6.00;99.90
66088;DHT22;52872;52.994;6.940;2023-02-28T00:23:45;6.00;99.90
66088;DHT22;52872;52.994;6.940;2023-02-28T00:26:12;6.10;99.90
66088;DHT22;52872;52.994;6.940;2023-02-28T00:28:43;6.10;99.90
66088;DHT22;52872;52.994;6.940;2023-02-28T00:31:10;6.10;99.90
66088;DHT22;52872;52.994;6.940;2023-02-28T00:33:37;6.10;99.90
66088;DHT22;52872;52.994;6.940;2023-02-28T00:36:07;6.20;99.90
66088;DHT22;52872;52.994;6.940;2023-02-28T00:38:35;6.10;99.90
66088;DHT22;52872;52.994;6.940;2023-02-28T00:41:03;6.10;99.90
66088;DHT22;52872;52.994;6.940;2023-02-28T00:43:38;6.20;99.90
66088;DHT22;52872;52.994;6.940;2023-02-28T00:46:05;6.20;99.90
66088;DHT22;52872;52.994;6.940;2023-02-28T00:48:32;6.10;99.90
66088;DHT22;52872;52.994;6.940;2023-02-28T00:51:00;6.10;99.90
66088;DHT22;52872;52.994;6.940;2023-02-28T00:53:27;6.10;99.90
66088;DHT22;52872;52.994;6.940;2023-02-28T00:55:56;6.10;99.90
66088;DHT22;52872;52.994;6.940;2023-02-28T00:58:25;6.10;99.90
66088;DHT22;52872;52.994;6.940;2023-02-28T01:00:52;6.10;99.90
66088;DHT22;52872;52.994;6.940;2023-02-28T01:03:21;6.10;99.90
66088;DHT22;52872;52.994;6.940;2023-02-28T01:05:49;6.20;99.90
66088;DHT22;52872;52.994;6.940;2023-02-28T01:08:16;6.20;99.90
66088;DHT22;52872;52.994;6.940;2023-02-28T01:10:43;6.20;99.90
66088;DHT22;52872;52.994;6.940;2023-02-28T01:13:11;6.20;99.90
66088;DHT22;52872;52.994;6.940;2023-02-28T01:15:43;6.20;99.90
66088;DHT22;52872;52.994;6.940;2023-02-28T01:18:11;6.20;99.90
66088;DHT22;52872;52.994;6.940;2023-02-28T01:20:38;6.20;99.90
66088;DHT22;52872;52.994;6.940;2023-02-28T01:23:05;6.10;99.90
66088;DHT22;52872;52.994;6.940;2023-02-28T01:25:37;6.10;99.90
66088;DHT22;52872;52.994;6.940;2023-02-28T01:28:04;6.20;99.90
66088;DHT22;52872;52.994;6.940;2023-02-28T01:30:33;6.10;99.90
66088;DHT22;52872;52.994;6.940;2023-02-28T01:33:00;6.10;99.90
66088;DHT22;52872;52.994;6.940;2023-02-28T01:35:27;6.20;99.90
66088;DHT22;52872;52.994;6.940;2023-02-28T01:37:54;6.20;99.90
66088;DHT22;52872;52.994;6.940;2023-02-28T01:40:26;6.20;99.90
66088;DHT22;52872;52.994;6.940;2023-02-28T01:42:53;6.20;99.90
66088;DHT22;52872;52.994;6.940;2023-02-28T01:45:29;6.10;99.90
66088;DHT22;52872;52.994;6.940;2023-02-28T01:48:05;6.20;99.90
66088;DHT22;52872;52.994;6.940;2023-02-28T01:50:41;6.20;99.90
66088;DHT22;52872;52.994;6.940;2023-02-28T01:53:16;6.20;99.90
66088;DHT22;52872;52.994;6.940;2023-02-28T01:55:47;6.20;99.90
66088;DHT22;52872;52.994;6.940;2023-02-28T01:58:15;6.20;99.90
66088;DHT22;52872;52.994;6.940;2023-02-28T02:00:42;6.20;99.90
66088;DHT22;52872;52.994;6.940;2023-02-28T02:03:15;6.20;99.90
66088;DHT22;52872;52.994;6.940;2023-02-28T02:05:45;6.20;99.90
66088;DHT22;52872;52.994;6.940;2023-02-28T02:08:20;6.20;99.90
66088;DHT22;52872;52.994;6.940;2023-02-28T02:11:00;6.20;99.90
66088;DHT22;52872;52.994;6.940;2023-02-28T02:13:55;6.20;99.90
66088;DHT22;52872;52.994;6.940;2023-02-28T02:27:50;6.00;99.90
66088;DHT22;52872;52.994;6.940;2023-02-28T02:36:09;6.00;99.90
66088;DHT22;52872;52.994;6.940;2023-02-28T02:41:40;6.00;99.90
66088;DHT22;52872;52.994;6.940;2023-02-28T02:44:23;6.00;99.90
66088;DHT22;52872;52.994;6.940;2023-02-28T02:46:55;6.00;99.90
66088;DHT22;52872;52.994;6.940;2023-02-28T02:49:31;5.90;99.90
66088;DHT22;52872;52.994;6.940;2023-02-28T02:52:11;5.90;99.90
66088;DHT22;52872;52.994;6.940;2023-02-28T02:54:45;6.00;99.90
66088;DHT22;52872;52.994;6.940;2023-02-28T02:57:27;5.90;99.90
66088;DHT22;52872;52.994;6.940;2023-02-28T02:59:57;5.90;99.90
66088;DHT22;52872;52.994;6.940;2023-02-28T03:02:26;5.90;99.90
66088;DHT22;52872;52.994;6.940;2023-02-28T03:04:59;5.90;99.90
66088;DHT22;52872;52.994;6.940;2023-02-28T03:07:28;5.90;99.90
66088;DHT22;52872;52.994;6.940;2023-02-28T03:09:56;5.90;99.90
66088;DHT22;52872;52.994;6.940;2023-02-28T03:12:33;5.90;99.90
66088;DHT22;52872;52.994;6.940;2023-02-28T03:15:16;5.90;99.90
66088;DHT22;52872;52.994;6.940;2023-02-28T03:23:21;5.90;99.90
66088;DHT22;52872;52.994;6.940;2023-02-28T03:26:12;5.90;99.90
66088;DHT22;52872;52.994;6.940;2023-02-28T03:31:30;5.90;99.90
66088;DHT22;52872;52.994;6.940;2023-02-28T03:34:10;5.90;99.90
66088;DHT22;52872;52.994;6.940;2023-02-28T03:36:42;5.90;99.90
66088;DHT22;52872;52.994;6.940;2023-02-28T03:39:23;5.90;99.90
66088;DHT22;52872;52.994;6.940;2023-02-28T03:41:59;6.00;99.90
66088;DHT22;52872;52.994;6.940;2023-02-28T03:44:50;6.00;99.90
66088;DHT22;52872;52.994;6.940;2023-02-28T03:47:35;6.00;99.90
66088;DHT22;52872;52.994;6.940;2023-02-28T03:50:08;6.00;99.90
66088;DHT22;52872;52.994;6.940;2023-02-28T03:52:51;6.00;99.90
66088;DHT22;52872;52.994;6.940;2023-02-28T03:55:20;6.00;99.90
66088;DHT22;52872;52.994;6.940;2023-02-28T04:01:05;6.00;99.90
66088;DHT22;52872;52.994;6.940;2023-02-28T04:03:36;6.00;99.90
66088;DHT22;52872;52.994;6.940;2023-02-28T04:06:04;6.00;99.90
66088;DHT22;52872;52.994;6.940;2023-02-28T04:08:32;6.00;99.90
66088;DHT22;52872;52.994;6.940;2023-02-28T04:11:36;6.00;99.90
66088;DHT22;52872;52.994;6.940;2023-02-28T04:14:05;6.10;99.90
66088;DHT22;52872;52.994;6.940;2023-02-28T04:16:33;6.00;99.90
66088;DHT22;52872;52.994;6.940;2023-02-28T04:19:06;6.00;99.90
66088;DHT22;52872;52.994;6.940;2023-02-28T04:21:36;6.00;99.90
66088;DHT22;52872;52.994;6.940;2023-02-28T04:24:06;6.00;99.90
66088;DHT22;52872;52.994;6.940;2023-02-28T04:26:36;6.00;99.90
66088;DHT22;52872;52.994;6.940;2023-02-28T04:29:05;6.00;99.90
66088;DHT22;52872;52.994;6.940;2023-02-28T04:31:33;6.00;99.90
66088;DHT22;52872;52.994;6.940;2023-02-28T04:34:00;6.00;99.90
66088;DHT22;52872;52.994;6.940;2023-02-28T04:36:27;6.00;99.90
66088;DHT22;52872;52.994;6.940;2023-02-28T04:38:54;6.00;99.90
66088;DHT22;52872;52.994;6.940;2023-02-28T04:41:22;6.00;99.90
66088;DHT22;52872;52.994;6.940;2023-02-28T04:43:51;6.00;99.90
66088;DHT22;52872;52.994;6.940;2023-02-28T04:46:19;6.00;99.90
66088;DHT22;52872;52.994;6.940;2023-02-28T04:48:46;6.00;99.90
66088;DHT22;52872;52.994;6.940;2023-02-28T04:51:15;6.00;99.90
66088;DHT22;52872;52.994;6.940;2023-02-28T04:53:43;6.00;99.90
66088;DHT22;52872;52.994;6.940;2023-02-28T04:56:13;6.00;99.90
66088;DHT22;52872;52.994;6.940;2023-02-28T04:58:40;6.00;99.90
66088;DHT22;52872;52.994;6.940;2023-02-28T05:03:46;6.00;99.90
66088;DHT22;52872;52.994;6.940;2023-02-28T05:06:14;5.90;99.90
66088;DHT22;52872;52.994;6.940;2023-02-28T05:08:41;5.90;99.90
66088;DHT22;52872;52.994;6.940;2023-02-28T05:13:43;5.90;99.90
66088;DHT22;52872;52.994;6.940;2023-02-28T05:16:10;5.90;99.90
66088;DHT22;52872;52.994;6.940;2023-02-28T05:18:37;5.90;99.90
66088;DHT22;52872;52.994;6.940;2023-02-28T05:21:05;5.90;99.90
66088;DHT22;52872;52.994;6.940;2023-02-28T05:23:32;5.90;99.90
66088;DHT22;52872;52.994;6.940;2023-02-28T05:25:59;5.80;99.90
66088;DHT22;52872;52.994;6.940;2023-02-28T05:28:26;5.80;99.90
66088;DHT22;52872;52.994;6.940;2023-02-28T05:30:53;5.80;99.90
66088;DHT22;52872;52.994;6.940;2023-02-28T05:33:20;5.80;99.90
66088;DHT22;52872;52.994;6.940;2023-02-28T05:35:47;5.80;99.90
66088;DHT22;52872;52.994;6.940;2023-02-28T05:38:14;5.70;99.90
66088;DHT22;52872;52.994;6.940;2023-02-28T05:40:41;5.70;99.90
66088;DHT22;52872;52.994;6.940;2023-02-28T05:43:10;5.70;99.90
66088;DHT22;52872;52.994;6.940;2023-02-28T05:45:38;5.70;99.90
66088;DHT22;52872;52.994;6.940;2023-02-28T05:48:05;5.70;99.90
66088;DHT22;52872;52.994;6.940;2023-02-28T05:50:32;5.60;99.90
66088;DHT22;52872;52.994;6.940;2023-02-28T05:52:59;5.60;99.90
66088;DHT22;52872;52.994;6.940;2023-02-28T05:55:26;5.60;99.90
66088;DHT22;52872;52.994;6.940;2023-02-28T05:57:53;5.60;99.90
66088;DHT22;52872;52.994;6.940;2023-02-28T06:00:20;5.50;99.90
66088;DHT22;52872;52.994;6.940;2023-02-28T06:02:47;5.50;99.90
66088;DHT22;52872;52.994;6.940;2023-02-28T06:05:16;5.50;99.90
66088;DHT22;52872;52.994;6.940;2023-02-28T06:07:44;5.50;99.90
66088;DHT22;52872;52.994;6.940;2023-02-28T06:10:11;5.50;99.90
66088;DHT22;52872;52.994;6.940;2023-02-28T06:12:39;5.50;99.90
66088;DHT22;52872;52.994;6.940;2023-02-28T06:15:12;5.50;99.90
66088;DHT22;52872;52.994;6.940;2023-02-28T06:17:43;5.50;99.90
66088;DHT22;52872;52.994;6.940;2023-02-28T06:20:11;5.40;99.90
66088;DHT22;52872;52.994;6.940;2023-02-28T06:22:42;5.40;99.90
66088;DHT22;52872;52.994;6.940;2023-02-28T06:25:10;5.40;99.90
66088;DHT22;52872;52.994;6.940;2023-02-28T06:27:37;5.50;99.90
66088;DHT22;52872;52.994;6.940;2023-02-28T06:30:04;5.50;99.90
66088;DHT22;52872;52.994;6.940;2023-02-28T06:32:31;5.50;99.90
66088;DHT22;52872;52.994;6.940;2023-02-28T06:34:58;5.50;99.90
66088;DHT22;52872;52.994;6.940;2023-02-28T06:37:25;5.60;99.90
66088;DHT22;52872;52.994;6.940;2023-02-28T06:39:55;5.60;99.90
66088;DHT22;52872;52.994;6.940;2023-02-28T06:42:23;5.60;99.90
66088;DHT22;52872;52.994;6.940;2023-02-28T06:44:56;5.60;99.90
66088;DHT22;52872;52.994;6.940;2023-02-28T06:47:23;5.60;99.90
66088;DHT22;52872;52.994;6.940;2023-02-28T06:49:50;5.60;99.90
66088;DHT22;52872;52.994;6.940;2023-02-28T06:52:17;5.70;99.90
66088;DHT22;52872;52.994;6.940;2023-02-28T06:54:44;5.70;99.90
66088;DHT22;52872;52.994;6.940;2023-02-28T06:57:11;5.70;99.90
66088;DHT22;52872;52.994;6.940;2023-02-28T06:59:38;5.70;99.90
66088;DHT22;52872;52.994;6.940;2023-02-28T07:02:05;5.80;99.90
66088;DHT22;52872;52.994;6.940;2023-02-28T07:04:33;5.90;99.90
66088;DHT22;52872;52.994;6.940;2023-02-28T07:07:00;5.90;99.90
66088;DHT22;52872;52.994;6.940;2023-02-28T07:09:27;6.00;99.90
66088;DHT22;52872;52.994;6.940;2023-02-28T07:11:56;6.10;99.90
66088;DHT22;52872;52.994;6.940;2023-02-28T07:14:23;6.20;99.90
66088;DHT22;52872;52.994;6.940;2023-02-28T07:16:50;6.30;99.90
66088;DHT22;52872;52.994;6.940;2023-02-28T07:19:17;6.50;99.90
66088;DHT22;52872;52.994;6.940;2023-02-28T07:21:44;6.60;99.90
66088;DHT22;52872;52.994;6.940;2023-02-28T07:24:11;6.70;99.90
66088;DHT22;52872;52.994;6.940;2023-02-28T07:26:38;6.80;99.90
66088;DHT22;52872;52.994;6.940;2023-02-28T07:29:05;6.90;99.90
66088;DHT22;52872;52.994;6.940;2023-02-28T07:31:32;7.00;99.90
66088;DHT22;52872;52.994;6.940;2023-02-28T07:33:59;7.10;99.90
66088;DHT22;52872;52.994;6.940;2023-02-28T07:36:26;7.20;99.90
66088;DHT22;52872;52.994;6.940;2023-02-28T07:38:53;7.40;99.90
66088;DHT22;52872;52.994;6.940;2023-02-28T07:41:21;7.50;99.90
66088;DHT22;52872;52.994;6.940;2023-02-28T07:43:49;7.60;99.90
66088;DHT22;52872;52.994;6.940;2023-02-28T07:46:17;7.70;99.90
66088;DHT22;52872;52.994;6.940;2023-02-28T07:48:47;7.70;99.90
66088;DHT22;52872;52.994;6.940;2023-02-28T07:51:14;7.80;99.90
66088;DHT22;52872;52.994;6.940;2023-02-28T07:53:41;7.80;99.90
66088;DHT22;52872;52.994;6.940;2023-02-28T07:56:08;7.90;99.90
66088;DHT22;52872;52.994;6.940;2023-02-28T07:58:36;7.90;99.90
66088;DHT22;52872;52.994;6.940;2023-02-28T08:01:08;8.00;99.90
66088;DHT22;52872;52.994;6.940;2023-02-28T08:03:36;8.10;99.90
66088;DHT22;52872;52.994;6.940;2023-02-28T08:06:04;8.10;99.90
66088;DHT22;52872;52.994;6.940;2023-02-28T08:08:32;8.10;99.90
66088;DHT22;52872;52.994;6.940;2023-02-28T08:11:01;8.10;99.90
66088;DHT22;52872;52.994;6.940;2023-02-28T08:13:29;8.10;99.90
66088;DHT22;52872;52.994;6.940;2023-02-28T08:15:56;8.10;99.90
66088;DHT22;52872;52.994;6.940;2023-02-28T08:18:24;8.10;99.90
66088;DHT22;52872;52.994;6.940;2023-02-28T08:20:51;8.20;99.90
66088;DHT22;52872;52.994;6.940;2023-02-28T08:23:18;8.30;99.90
66088;DHT22;52872;52.994;6.940;2023-02-28T08:25:53;8.30;99.90
66088;DHT22;52872;52.994;6.940;2023-02-28T08:28:21;8.40;99.90
66088;DHT22;52872;52.994;6.940;2023-02-28T08:30:50;8.40;99.90
66088;DHT22;52872;52.994;6.940;2023-02-28T08:33:17;8.40;99.90
66088;DHT22;52872;52.994;6.940;2023-02-28T08:35:44;8.40;99.90
66088;DHT22;52872;52.994;6.940;2023-02-28T08:38:11;8.50;99.90
66088;DHT22;52872;52.994;6.940;2023-02-28T08:40:38;8.80;99.90
66088;DHT22;52872;52.994;6.940;2023-02-28T08:43:05;9.00;99.90
66088;DHT22;52872;52.994;6.940;2023-02-28T08:45:32;9.20;99.90
66088;DHT22;52872;52.994;6.940;2023-02-28T08:47:59;9.30;99.90
66088;DHT22;52872;52.994;6.940;2023-02-28T08:50:26;9.20;99.90
66088;DHT22;52872;52.994;6.940;2023-02-28T08:52:53;9.10;99.90
66088;DHT22;52872;52.994;6.940;2023-02-28T08:55:20;8.90;99.90
66088;DHT22;52872;52.994;6.940;2023-02-28T08:57:47;8.80;99.90
66088;DHT22;52872;52.994;6.940;2023-02-28T09:00:14;8.80;99.90
66088;DHT22;52872;52.994;6.940;2023-02-28T09:02:41;8.70;99.90
66088;DHT22;52872;52.994;6.940;2023-02-28T09:05:10;8.50;99.90
66088;DHT22;52872;52.994;6.940;2023-02-28T09:07:37;8.50;99.90
66088;DHT22;52872;52.994;6.940;2023-02-28T09:10:04;8.50;99.90
66088;DHT22;52872;52.994;6.940;2023-02-28T09:12:33;8.40;99.90
66088;DHT22;52872;52.994;6.940;2023-02-28T09:15:01;8.40;99.90
66088;DHT22;52872;52.994;6.940;2023-02-28T09:17:28;8.40;99.90
66088;DHT22;52872;52.994;6.940;2023-02-28T09:19:57;8.30;99.90
66088;DHT22;52872;52.994;6.940;2023-02-28T09:22:24;8.30;99.90
66088;DHT22;52872;52.994;6.940;2023-02-28T09:24:51;8.20;99.90
66088;DHT22;52872;52.994;6.940;2023-02-28T09:27:18;8.20;99.90
66088;DHT22;52872;52.994;6.940;2023-02-28T09:29:45;8.30;99.90
66088;DHT22;52872;52.994;6.940;2023-02-28T09:32:12;8.40;99.90
66088;DHT22;52872;52.994;6.940;2023-02-28T09:34:39;8.40;99.90
66088;DHT22;52872;52.994;6.940;2023-02-28T09:37:06;8.50;99.90
66088;DHT22;52872;52.994;6.940;2023-02-28T09:39:33;8.50;99.90
66088;DHT22;52872;52.994;6.940;2023-02-28T09:42:02;8.60;99.90
66088;DHT22;52872;52.994;6.940;2023-02-28T09:44:43;8.70;99.90
66088;DHT22;52872;52.994;6.940;2023-02-28T09:52:50;8.60;99.90
66088;DHT22;52872;52.994;6.940;2023-02-28T09:55:58;8.80;99.90
66088;DHT22;52872;52.994;6.940;2023-02-28T09:58:43;9.20;99.90
66088;DHT22;52872;52.994;6.940;2023-02-28T10:01:31;9.50;99.90
66088;DHT22;52872;52.994;6.940;2023-02-28T10:06:56;10.00;99.90
66088;DHT22;52872;52.994;6.940;2023-02-28T10:09:32;10.10;99.60
66088;DHT22;52872;52.994;6.940;2023-02-28T10:12:04;10.20;98.60
66088;DHT22;52872;52.994;6.940;2023-02-28T10:14:33;10.20;99.10
66088;DHT22;52872;52.994;6.940;2023-02-28T10:17:19;10.10;97.20
66088;DHT22;52872;52.994;6.940;2023-02-28T10:22:49;9.80;97.70
66088;DHT22;52872;52.994;6.940;2023-02-28T10:25:23;9.70;97.10
66088;DHT22;52872;52.994;6.940;2023-02-28T10:28:28;9.50;98.00
66088;DHT22;52872;52.994;6.940;2023-02-28T10:30:49;9.50;97.30
66088;DHT22;52872;52.994;6.940;2023-02-28T10:35:50;9.30;98.30
66088;DHT22;52872;52.994;6.940;2023-02-28T10:38:36;9.30;98.90
66088;DHT22;52872;52.994;6.940;2023-02-28T10:41:26;9.40;99.00
66088;DHT22;52872;52.994;6.940;2023-02-28T10:44:22;9.50;99.10
66088;DHT22;52872;52.994;6.940;2023-02-28T10:46:50;9.50;98.70
66088;DHT22;52872;52.994;6.940;2023-02-28T10:49:24;9.50;98.80
66088;DHT22;52872;52.994;6.940;2023-02-28T10:51:55;9.60;98.40
66088;DHT22;52872;52.994;6.940;2023-02-28T10:54:34;9.60;98.40
66088;DHT22;52872;52.994;6.940;2023-02-28T10:57:21;9.50;97.70
66088;DHT22;52872;52.994;6.940;2023-02-28T10:59:52;9.50;97.70
66088;DHT22;52872;52.994;6.940;2023-02-28T11:02:35;9.40;97.60
66088;DHT22;52872;52.994;6.940;2023-02-28T11:05:23;9.40;98.00
66088;DHT22;52872;52.994;6.940;2023-02-28T11:07:55;9.60;97.90
66088;DHT22;52872;52.994;6.940;2023-02-28T11:10:26;9.70;98.00
66088;DHT22;52872;52.994;6.940;2023-02-28T11:12:57;9.80;98.00
66088;DHT22;52872;52.994;6.940;2023-02-28T11:15:34;10.00;97.90
66088;DHT22;52872;52.994;6.940;2023-02-28T11:20:39;10.20;97.30
66088;DHT22;52872;52.994;6.940;2023-02-28T11:23:12;10.40;97.10
66088;DHT22;52872;52.994;6.940;2023-02-28T11:25:40;10.40;96.10
66088;DHT22;52872;52.994;6.940;2023-02-28T11:28:34;10.30;96.40
66088;DHT22;52872;52.994;6.940;2023-02-28T11:36:23;10.10;96.50
66088;DHT22;52872;52.994;6.940;2023-02-28T11:38:57;10.30;96.10
66088;DHT22;52872;52.994;6.940;2023-02-28T11:46:58;10.50;94.60
66088;DHT22;52872;52.994;6.940;2023-02-28T11:49:40;10.50;94.50
66088;DHT22;52872;52.994;6.940;2023-02-28T12:11:49;11.20;93.10
66088;DHT22;52872;52.994;6.940;2023-02-28T12:19:33;11.20;92.50
66088;DHT22;52872;52.994;6.940;2023-02-28T12:27:51;11.00;93.60
66088;DHT22;52872;52.994;6.940;2023-02-28T12:30:24;11.00;93.80
66088;DHT22;52872;52.994;6.940;2023-02-28T12:33:12;11.10;93.30
66088;DHT22;52872;52.994;6.940;2023-02-28T12:35:55;11.30;92.60
66088;DHT22;52872;52.994;6.940;2023-02-28T12:38:29;11.30;92.60
66088;DHT22;52872;52.994;6.940;2023-02-28T12:41:04;11.20;92.80
66088;DHT22;52872;52.994;6.940;2023-02-28T12:43:37;11.30;92.20
66088;DHT22;52872;52.994;6.940;2023-02-28T12:46:24;11.20;92.10
66088;DHT22;52872;52.994;6.940;2023-02-28T12:49:23;11.10;92.50
66088;DHT22;52872;52.994;6.940;2023-02-28T12:51:48;11.00;92.30
66088;DHT22;52872;52.994;6.940;2023-02-28T12:54:30;10.80;92.50
66088;DHT22;52872;52.994;6.940;2023-02-28T12:59:48;10.60;92.30
66088;DHT22;52872;52.994;6.940;2023-02-28T13:07:58;10.50;92.70
66088;DHT22;52872;52.994;6.940;2023-02-28T13:10:46;10.40;92.80
66088;DHT22;52872;52.994;6.940;2023-02-28T13:13:18;10.30;92.60
66088;DHT22;52872;52.994;6.940;2023-02-28T13:16:06;10.30;93.10
66088;DHT22;52872;52.994;6.940;2023-02-28T13:18:37;10.30;92.50
66088;DHT22;52872;52.994;6.940;2023-02-28T13:21:23;10.20;92.00
66088;DHT22;52872;52.994;6.940;2023-02-28T13:34:29;9.80;90.90
66088;DHT22;52872;52.994;6.940;2023-02-28T13:50:36;9.60;90.90
66088;DHT22;52872;52.994;6.940;2023-02-28T14:07:01;9.90;91.60
66088;DHT22;52872;52.994;6.940;2023-02-28T14:12:17;9.70;92.10
66088;DHT22;52872;52.994;6.940;2023-02-28T14:17:16;9.70;92.60
66088;DHT22;52872;52.994;6.940;2023-02-28T14:19:45;9.70;92.80
66088;DHT22;52872;52.994;6.940;2023-02-28T14:25:16;9.60;92.60
66088;DHT22;52872;52.994;6.940;2023-02-28T14:30:29;9.70;92.10
66088;DHT22;52872;52.994;6.940;2023-02-28T14:33:22;9.70;92.30
66088;DHT22;52872;52.994;6.940;2023-02-28T14:36:01;9.80;92.40
66088;DHT22;52872;52.994;6.940;2023-02-28T14:38:33;9.80;92.60
66088;DHT22;52872;52.994;6.940;2023-02-28T14:41:05;9.80;92.30
66088;DHT22;52872;52.994;6.940;2023-02-28T14:43:33;9.80;92.40
66088;DHT22;52872;52.994;6.940;2023-02-28T14:46:03;9.80;92.20
66088;DHT22;52872;52.994;6.940;2023-02-28T14:48:37;9.90;92.00
66088;DHT22;52872;52.994;6.940;2023-02-28T14:51:05;10.00;91.30
66088;DHT22;52872;52.994;6.940;2023-02-28T14:53:36;10.00;91.00
66088;DHT22;52872;52.994;6.940;2023-02-28T14:56:04;10.00;90.90
66088;DHT22;52872;52.994;6.940;2023-02-28T14:58:33;10.00;91.40
66088;DHT22;52872;52.994;6.940;2023-02-28T15:01:02;10.00;91.10
66088;DHT22;52872;52.994;6.940;2023-02-28T15:03:33;9.90;91.30
66088;DHT22;52872;52.994;6.940;2023-02-28T15:06:02;9.90;91.70
66088;DHT22;52872;52.994;6.940;2023-02-28T15:08:31;10.00;91.90
66088;DHT22;52872;52.994;6.940;2023-02-28T15:11:05;10.00;91.90
66088;DHT22;52872;52.994;6.940;2023-02-28T15:13:43;9.90;91.80
66088;DHT22;52872;52.994;6.940;2023-02-28T15:16:15;9.90;91.90
66088;DHT22;52872;52.994;6.940;2023-02-28T15:18:49;9.90;92.20
66088;DHT22;52872;52.994;6.940;2023-02-28T15:23:53;9.80;91.70
66088;DHT22;52872;52.994;6.940;2023-02-28T15:26:27;9.80;92.10
66088;DHT22;52872;52.994;6.940;2023-02-28T15:29:06;9.80;91.30
66088;DHT22;52872;52.994;6.940;2023-02-28T15:31:43;9.70;91.30
66088;DHT22;52872;52.994;6.940;2023-02-28T15:34:30;9.60;91.40
66088;DHT22;52872;52.994;6.940;2023-02-28T15:37:45;9.50;91.50
66088;DHT22;52872;52.994;6.940;2023-02-28T15:42:59;9.40;91.40
66088;DHT22;52872;52.994;6.940;2023-02-28T15:45:28;9.50;91.10
66088;DHT22;52872;52.994;6.940;2023-02-28T15:47:55;9.40;92.00
66088;DHT22;52872;52.994;6.940;2023-02-28T15:50:28;9.30;92.70
66088;DHT22;52872;52.994;6.940;2023-02-28T15:52:57;9.20;93.30
66088;DHT22;52872;52.994;6.940;2023-02-28T15:55:27;9.20;93.10
66088;DHT22;52872;52.994;6.940;2023-02-28T15:57:56;9.20;93.20
66088;DHT22;52872;52.994;6.940;2023-02-28T16:00:26;9.20;93.10
66088;DHT22;52872;52.994;6.940;2023-02-28T16:02:54;9.20;93.20
66088;DHT22;52872;52.994;6.940;2023-02-28T16:08:11;9.10;93.50
66088;DHT22;52872;52.994;6.940;2023-02-28T16:10:40;9.10;93.50
66088;DHT22;52872;52.994;6.940;2023-02-28T16:13:11;9.00;93.20
66088;DHT22;52872;52.994;6.940;2023-02-28T16:15:43;9.00;93.30
66088;DHT22;52872;52.994;6.940;2023-02-28T16:18:11;8.90;93.40
66088;DHT22;52872;52.994;6.940;2023-02-28T16:20:39;8.90;93.50
66088;DHT22;52872;52.994;6.940;2023-02-28T16:23:06;8.80;93.70
66088;DHT22;52872;52.994;6.940;2023-02-28T16:25:37;8.80;93.60
66088;DHT22;52872;52.994;6.940;2023-02-28T16:28:21;8.70;93.90
66088;DHT22;52872;52.994;6.940;2023-02-28T16:30:53;8.70;93.60
66088;DHT22;52872;52.994;6.940;2023-02-28T16:33:21;8.60;93.80
66088;DHT22;52872;52.994;6.940;2023-02-28T16:35:48;8.50;93.80
66088;DHT22;52872;52.994;6.940;2023-02-28T16:38:14;8.50;93.70
66088;DHT22;52872;52.994;6.940;2023-02-28T16:40:41;8.40;93.80
66088;DHT22;52872;52.994;6.940;2023-02-28T16:43:15;8.40;94.00
66088;DHT22;52872;52.994;6.940;2023-02-28T16:45:42;8.30;94.20
66088;DHT22;52872;52.994;6.940;2023-02-28T16:48:14;8.20;94.40
66088;DHT22;52872;52.994;6.940;2023-02-28T16:50:42;8.10;94.60
66088;DHT22;52872;52.994;6.940;2023-02-28T16:53:11;8.00;94.60
66088;DHT22;52872;52.994;6.940;2023-02-28T16:55:38;8.00;94.50
66088;DHT22;52872;52.994;6.940;2023-02-28T16:58:05;7.90;94.70
66088;DHT22;52872;52.994;6.940;2023-02-28T17:00:32;7.80;94.70
66088;DHT22;52872;52.994;6.940;2023-02-28T17:02:59;7.70;94.80
66088;DHT22;52872;52.994;6.940;2023-02-28T17:05:36;7.60;94.80
66088;DHT22;52872;52.994;6.940;2023-02-28T17:08:04;7.60;94.90
66088;DHT22;52872;52.994;6.940;2023-02-28T17:10:32;7.50;95.20
66088;DHT22;52872;52.994;6.940;2023-02-28T17:12:59;7.40;95.40
66088;DHT22;52872;52.994;6.940;2023-02-28T17:15:40;7.30;95.70
66088;DHT22;52872;52.994;6.940;2023-02-28T17:18:12;7.30;95.70
66088;DHT22;52872;52.994;6.940;2023-02-28T17:20:40;7.20;96.00
66088;DHT22;52872;52.994;6.940;2023-02-28T17:23:08;7.10;96.40
66088;DHT22;52872;52.994;6.940;2023-02-28T17:25:36;7.10;96.60
66088;DHT22;52872;52.994;6.940;2023-02-28T17:28:03;7.00;96.70
66088;DHT22;52872;52.994;6.940;2023-02-28T17:30:33;6.90;97.20
66088;DHT22;52872;52.994;6.940;2023-02-28T17:33:00;6.80;97.50
66088;DHT22;52872;52.994;6.940;2023-02-28T17:35:27;6.80;97.60
66088;DHT22;52872;52.994;6.940;2023-02-28T17:37:55;6.70;98.20
66088;DHT22;52872;52.994;6.940;2023-02-28T17:40:23;6.60;98.10
66088;DHT22;52872;52.994;6.940;2023-02-28T17:42:50;6.60;98.30
66088;DHT22;52872;52.994;6.940;2023-02-28T17:45:19;6.50;98.80
66088;DHT22;52872;52.994;6.940;2023-02-28T17:47:48;6.40;99.50
66088;DHT22;52872;52.994;6.940;2023-02-28T17:50:20;6.40;99.70
66088;DHT22;52872;52.994;6.940;2023-02-28T17:52:48;6.40;99.90
66088;DHT22;52872;52.994;6.940;2023-02-28T17:55:17;6.40;99.90
66088;DHT22;52872;52.994;6.940;2023-02-28T17:57:46;6.30;99.90
66088;DHT22;52872;52.994;6.940;2023-02-28T18:00:15;6.30;99.90
66088;DHT22;52872;52.994;6.940;2023-02-28T18:02:44;6.30;99.90
66088;DHT22;52872;52.994;6.940;2023-02-28T18:05:11;6.20;99.90
66088;DHT22;52872;52.994;6.940;2023-02-28T18:07:39;6.20;99.90
66088;DHT22;52872;52.994;6.940;2023-02-28T18:10:11;6.20;99.90
66088;DHT22;52872;52.994;6.940;2023-02-28T18:12:39;6.10;99.90
66088;DHT22;52872;52.994;6.940;2023-02-28T18:15:07;6.10;99.90
66088;DHT22;52872;52.994;6.940;2023-02-28T18:17:34;6.00;99.90
66088;DHT22;52872;52.994;6.940;2023-02-28T18:20:01;6.00;99.90
66088;DHT22;52872;52.994;6.940;2023-02-28T18:22:28;5.90;99.90
66088;DHT22;52872;52.994;6.940;2023-02-28T18:24:55;5.90;99.90
66088;DHT22;52872;52.994;6.940;2023-02-28T18:27:22;5.80;99.90
66088;DHT22;52872;52.994;6.940;2023-02-28T18:29:49;5.80;99.90
66088;DHT22;52872;52.994;6.940;2023-02-28T18:32:18;5.80;99.90
66088;DHT22;52872;52.994;6.940;2023-02-28T18:34:45;5.70;99.90
66088;DHT22;52872;52.994;6.940;2023-02-28T18:37:12;5.70;99.90
66088;DHT22;52872;52.994;6.940;2023-02-28T18:39:39;5.60;99.90
66088;DHT22;52872;52.994;6.940;2023-02-28T18:42:06;5.60;99.90
66088;DHT22;52872;52.994;6.940;2023-02-28T18:44:33;5.60;99.90
66088;DHT22;52872;52.994;6.940;2023-02-28T18:47:00;5.50;99.90
66088;DHT22;52872;52.994;6.940;2023-02-28T18:49:27;5.50;99.90